createdAt,value
2023-07-29T00:01:33.234Z,13.6
2023-07-29T00:03:34.061Z,13.6
2023-07-29T00:06:35.372Z,13.7
2023-07-29T00:08:36.947Z,13.7
2023-07-29T00:11:37.575Z,13.7
2023-07-29T00:16:38.498Z,13.8
2023-07-29T00:18:40.595Z,13.8
2023-07-29T00:21:41.193Z,13.7
2023-07-29T00:24:41.721Z,13.7
2023-07-29T00:26:42.388Z,13.7
2023-07-29T00:29:42.993Z,13.6
2023-07-29T00:31:43.662Z,13.6
2023-07-29T00:34:44.345Z,13.6
2023-07-29T00:36:44.925Z,13.6
2023-07-29T00:39:45.504Z,13.6
2023-07-29T00:41:46.138Z,13.6
2023-07-29T00:44:46.717Z,13.6
2023-07-29T00:46:47.356Z,13.5
2023-07-29T00:49:48.051Z,13.4
2023-07-29T00:51:48.644Z,13.4
2023-07-29T00:56:49.269Z,13.3
2023-07-29T00:59:49.871Z,13.2
2023-07-29T01:02:50.589Z,13.2
2023-07-29T01:04:51.541Z,13.2
2023-07-29T01:07:52.152Z,13.2
2023-07-29T01:09:52.761Z,13.1
2023-07-29T01:12:53.381Z,13.1
2023-07-29T01:14:54.207Z,13.1
2023-07-29T01:17:54.868Z,13.0
2023-07-29T01:19:55.579Z,13.0
2023-07-29T01:22:56.165Z,13.0
2023-07-29T01:24:56.765Z,13.0
2023-07-29T01:27:57.440Z,13.0
2023-07-29T01:29:58.093Z,13.0
2023-07-29T01:32:58.743Z,13.0
2023-07-29T01:37:59.476Z,12.9
2023-07-29T01:40:00.065Z,12.9
2023-07-29T01:43:00.690Z,12.8
2023-07-29T01:45:01.287Z,12.7
2023-07-29T01:48:01.911Z,12.7
2023-07-29T01:50:02.583Z,12.7
2023-07-29T01:53:03.330Z,12.8
2023-07-29T01:56:03.969Z,12.8
2023-07-29T01:58:04.586Z,12.8
2023-07-29T02:01:05.275Z,12.7
2023-07-29T02:03:06.044Z,12.6
2023-07-29T02:06:06.772Z,12.7
2023-07-29T02:08:07.369Z,12.7
2023-07-29T02:11:08.013Z,12.6
2023-07-29T02:13:08.640Z,12.6
2023-07-29T02:18:09.320Z,12.5
2023-07-29T02:21:10.002Z,12.4
2023-07-29T02:24:10.618Z,12.4
2023-07-29T02:26:11.243Z,12.3
2023-07-29T02:29:11.861Z,12.3
2023-07-29T02:31:12.492Z,12.2
2023-07-29T02:34:13.344Z,12.1
2023-07-29T02:36:13.944Z,12.1
2023-07-29T02:39:14.689Z,12.1
2023-07-29T02:41:15.287Z,12.2
2023-07-29T02:44:15.907Z,12.1
2023-07-29T02:46:16.582Z,12.0
2023-07-29T02:49:17.329Z,12.0
2023-07-29T02:51:17.916Z,11.9
2023-07-29T02:54:18.619Z,11.9
2023-07-29T02:59:19.257Z,11.9
2023-07-29T03:02:19.838Z,11.9
2023-07-29T03:04:20.462Z,11.9
2023-07-29T03:07:21.040Z,12.0
2023-07-29T03:09:21.660Z,11.9
2023-07-29T03:12:22.285Z,11.8
2023-07-29T03:14:22.932Z,11.8
2023-07-29T03:17:23.527Z,12.0
2023-07-29T03:19:24.138Z,12.2
2023-07-29T03:22:24.735Z,12.3
2023-07-29T03:24:25.336Z,12.3
2023-07-29T03:27:25.929Z,12.4
2023-07-29T03:29:26.546Z,12.4
2023-07-29T03:32:27.190Z,12.6
2023-07-29T03:34:27.855Z,12.8
2023-07-29T03:39:28.443Z,12.8
2023-07-29T03:42:29.023Z,12.9
2023-07-29T03:44:29.749Z,12.9
2023-07-29T03:47:30.373Z,12.9
2023-07-29T03:50:31.155Z,12.9
2023-07-29T03:52:31.764Z,12.9
2023-07-29T03:55:32.389Z,13.0
2023-07-29T03:57:32.967Z,12.9
2023-07-29T04:00:33.610Z,13.0
2023-07-29T04:02:34.222Z,13.0
2023-07-29T04:05:34.962Z,13.0
2023-07-29T04:07:35.564Z,13.1
2023-07-29T04:10:36.149Z,13.0
2023-07-29T04:12:36.752Z,13.0
2023-07-29T04:15:37.369Z,13.1
2023-07-29T04:20:37.978Z,13.0
2023-07-29T04:22:38.565Z,13.1
2023-07-29T04:25:39.154Z,13.1
2023-07-29T04:27:39.743Z,13.1
2023-07-29T04:30:40.354Z,13.1
2023-07-29T04:33:41.170Z,13.2
2023-07-29T04:35:41.822Z,13.2
2023-07-29T04:38:42.430Z,13.2
2023-07-29T04:40:43.131Z,13.2
2023-07-29T04:43:43.711Z,13.2
2023-07-29T04:45:44.380Z,13.2
2023-07-29T04:48:45.163Z,13.2
2023-07-29T04:50:45.755Z,13.3
2023-07-29T04:53:46.343Z,13.3
2023-07-29T04:55:46.947Z,13.4
2023-07-29T05:00:47.576Z,13.5
2023-07-29T05:03:48.139Z,13.6
2023-07-29T05:06:48.796Z,13.8
2023-07-29T05:08:49.390Z,13.8
2023-07-29T05:11:50.044Z,13.7
2023-07-29T05:13:50.686Z,13.7
2023-07-29T05:18:51.324Z,14.1
2023-07-29T05:21:51.953Z,14.1
2023-07-29T05:23:52.894Z,14.1
2023-07-29T05:26:53.464Z,14.2
2023-07-29T05:28:54.048Z,14.2
2023-07-29T05:31:54.608Z,14.3
2023-07-29T05:33:55.235Z,14.0
2023-07-29T05:36:56.111Z,14.1
2023-07-29T05:41:56.689Z,14.3
2023-07-29T05:44:57.297Z,14.3
2023-07-29T05:46:57.925Z,14.4
2023-07-29T05:49:59.590Z,14.3
2023-07-29T05:52:03.854Z,14.3
2023-07-29T05:54:04.472Z,14.5
2023-07-29T05:57:05.048Z,14.7
2023-07-29T06:00:05.679Z,14.5
2023-07-29T06:02:06.343Z,14.5
2023-07-29T06:05:08.258Z,14.7
2023-07-29T06:07:08.896Z,14.7
2023-07-29T06:10:09.488Z,14.5
2023-07-29T06:12:10.097Z,14.5
2023-07-29T06:15:10.678Z,14.5
2023-07-29T06:17:11.411Z,14.4
2023-07-29T06:22:12.233Z,14.4
2023-07-29T06:25:12.823Z,14.3
2023-07-29T06:27:13.613Z,14.2
2023-07-29T06:30:14.188Z,14.2
2023-07-29T06:33:14.798Z,14.2
2023-07-29T06:35:15.384Z,14.2
2023-07-29T06:38:16.008Z,14.2
2023-07-29T06:40:16.611Z,14.2
2023-07-29T06:43:17.214Z,14.2
2023-07-29T06:45:17.824Z,14.1
2023-07-29T06:48:18.434Z,14.2
2023-07-29T06:50:19.023Z,14.3
2023-07-29T06:53:19.679Z,14.4
2023-07-29T06:55:20.287Z,14.4
2023-07-29T06:58:20.914Z,14.6
2023-07-29T07:03:21.590Z,14.8
2023-07-29T07:05:22.477Z,14.8
2023-07-29T07:08:23.117Z,14.6
2023-07-29T07:13:23.729Z,14.6
2023-07-29T07:15:24.353Z,14.7
2023-07-29T07:18:24.995Z,14.6
2023-07-29T07:21:25.589Z,14.6
2023-07-29T07:23:26.191Z,14.6
2023-07-29T07:26:26.810Z,14.6
2023-07-29T07:28:27.631Z,14.5
2023-07-29T07:31:28.488Z,14.4
2023-07-29T07:33:29.191Z,14.4
2023-07-29T07:36:29.786Z,14.4
2023-07-29T07:38:30.386Z,14.4
2023-07-29T07:43:31.006Z,14.2
2023-07-29T07:46:31.592Z,14.1
2023-07-29T07:48:32.334Z,14.1
2023-07-29T07:51:32.925Z,14.1
2023-07-29T07:54:33.544Z,14.1
2023-07-29T07:56:34.134Z,14.1
2023-07-29T07:59:35.118Z,14.1
2023-07-29T08:01:35.745Z,14.1
2023-07-29T08:04:36.470Z,14.1
2023-07-29T08:06:37.276Z,14.1
2023-07-29T08:09:38.764Z,14.1
2023-07-29T08:11:39.406Z,14.2
2023-07-29T08:14:40.021Z,14.2
2023-07-29T08:16:40.834Z,14.4
2023-07-29T08:19:41.608Z,14.5
2023-07-29T08:24:42.192Z,14.9
2023-07-29T08:26:42.781Z,15.0
2023-07-29T08:29:43.463Z,15.0
2023-07-29T08:31:44.057Z,14.9
2023-07-29T08:34:44.858Z,15.0
2023-07-29T08:36:45.528Z,15.2
2023-07-29T08:39:46.152Z,15.3
2023-07-29T08:41:46.808Z,15.6
2023-07-29T08:44:47.417Z,15.4
2023-07-29T08:47:48.067Z,15.5
2023-07-29T08:49:48.843Z,15.6
2023-07-29T08:52:49.448Z,15.4
2023-07-29T08:54:50.052Z,15.6
2023-07-29T08:57:50.642Z,15.6
2023-07-29T08:59:51.260Z,15.7
2023-07-29T09:04:51.865Z,16.0
2023-07-29T09:07:54.197Z,16.3
2023-07-29T09:09:55.846Z,16.2
2023-07-29T09:12:56.417Z,16.3
2023-07-29T09:14:57.058Z,16.6
2023-07-29T09:17:58.707Z,16.8
2023-07-29T09:20:03.601Z,16.8
2023-07-29T09:23:04.195Z,16.4
2023-07-29T09:26:04.917Z,16.4
2023-07-29T09:28:05.526Z,16.1
2023-07-29T09:30:06.124Z,15.7
2023-07-29T09:33:06.733Z,15.5
2023-07-29T09:36:07.460Z,15.4
2023-07-29T09:41:08.060Z,15.2
2023-07-29T09:46:08.744Z,15.3
2023-07-29T09:48:09.473Z,15.2
2023-07-29T09:51:10.243Z,15.3
2023-07-29T09:53:10.827Z,15.6
2023-07-29T09:56:11.416Z,15.7
2023-07-29T09:58:12.004Z,16.0
2023-07-29T10:01:12.624Z,16.1
2023-07-29T10:04:13.628Z,16.2
2023-07-29T10:06:14.854Z,16.4
2023-07-29T10:09:15.434Z,16.5
2023-07-29T10:11:16.039Z,16.8
2023-07-29T10:14:16.738Z,16.9
2023-07-29T10:16:17.345Z,16.8
2023-07-29T10:19:18.067Z,17.2
2023-07-29T10:21:18.673Z,17.3
2023-07-29T10:26:19.280Z,17.4
2023-07-29T10:29:19.972Z,17.2
2023-07-29T10:31:20.697Z,17.4
2023-07-29T10:34:21.297Z,17.4
2023-07-29T10:36:23.177Z,17.5
2023-07-29T10:39:23.809Z,17.6
2023-07-29T10:41:24.417Z,17.5
2023-07-29T10:44:25.009Z,17.6
2023-07-29T10:47:25.678Z,17.6
2023-07-29T10:49:26.712Z,17.7
2023-07-29T10:52:27.310Z,17.5
2023-07-29T10:54:27.944Z,17.8
2023-07-29T10:57:28.616Z,17.7
2023-07-29T10:59:29.186Z,18.3
2023-07-29T11:02:29.776Z,18.4
2023-07-29T11:07:30.728Z,18.0
2023-07-29T11:09:31.354Z,18.0
2023-07-29T11:12:31.977Z,18.2
2023-07-29T11:14:32.557Z,18.2
2023-07-29T11:17:33.175Z,18.3
2023-07-29T11:19:33.865Z,18.3
2023-07-29T11:22:34.668Z,18.3
2023-07-29T11:24:35.454Z,18.2
2023-07-29T11:27:36.118Z,18.3
2023-07-29T11:29:36.686Z,18.4
2023-07-29T11:32:37.345Z,18.4
2023-07-29T11:34:38.072Z,18.4
2023-07-29T11:37:38.681Z,18.8
2023-07-29T11:40:39.257Z,19.2
2023-07-29T11:42:39.852Z,19.1
2023-07-29T11:47:40.471Z,19.2
2023-07-29T11:50:41.119Z,19.3
2023-07-29T11:52:41.732Z,19.6
2023-07-29T11:55:42.340Z,19.8
2023-07-29T11:57:42.945Z,19.9
2023-07-29T12:00:43.570Z,19.8
2023-07-29T12:02:44.179Z,20.0
2023-07-29T12:05:44.880Z,20.4
2023-07-29T12:07:45.720Z,20.3
2023-07-29T12:10:46.370Z,20.3
2023-07-29T12:13:46.985Z,20.3
2023-07-29T12:15:47.574Z,20.5
2023-07-29T12:18:48.241Z,20.5
2023-07-29T12:20:48.993Z,21.0
2023-07-29T12:23:49.647Z,20.8
2023-07-29T12:28:50.235Z,20.6
2023-07-29T12:30:50.834Z,20.5
2023-07-29T12:33:51.559Z,20.2
2023-07-29T12:35:52.191Z,19.8
2023-07-29T12:38:52.921Z,19.6
2023-07-29T12:40:53.528Z,19.3
2023-07-29T12:43:54.136Z,19.1
2023-07-29T12:46:54.761Z,18.8
2023-07-29T12:48:55.584Z,18.2
2023-07-29T12:51:56.167Z,17.2
2023-07-29T12:53:56.973Z,16.7
2023-07-29T12:56:57.534Z,16.4
2023-07-29T12:58:58.254Z,16.4
2023-07-29T13:01:58.835Z,16.4
2023-07-29T13:03:59.458Z,16.5
2023-07-29T13:09:00.277Z,16.8
2023-07-29T13:12:00.921Z,17.3
2023-07-29T13:14:01.654Z,17.9
2023-07-29T13:17:02.442Z,18.6
2023-07-29T13:19:03.228Z,18.8
2023-07-29T13:22:03.801Z,18.4
2023-07-29T13:24:04.470Z,18.6
2023-07-29T13:27:05.065Z,18.9
2023-07-29T13:29:07.398Z,19.2
2023-07-29T13:32:10.477Z,19.1
2023-07-29T13:35:11.446Z,19.3
2023-07-29T13:37:12.023Z,19.2
2023-07-29T13:40:12.622Z,18.8
2023-07-29T13:42:13.213Z,18.9
2023-07-29T13:45:13.795Z,19.3
2023-07-29T13:50:14.413Z,18.8
2023-07-29T13:52:15.029Z,18.9
2023-07-29T13:55:15.663Z,19.0
2023-07-29T13:57:16.250Z,18.7
2023-07-29T14:00:16.865Z,18.8
2023-07-29T14:02:17.435Z,18.7
2023-07-29T14:05:18.210Z,18.6
2023-07-29T14:07:19.054Z,18.8
2023-07-29T14:10:19.778Z,18.9
2023-07-29T14:12:20.442Z,19.0
2023-07-29T14:15:21.477Z,19.1
2023-07-29T14:17:22.051Z,19.2
2023-07-29T14:20:22.800Z,19.5
2023-07-29T14:22:23.453Z,19.7
2023-07-29T14:25:24.091Z,19.7
2023-07-29T14:30:24.731Z,20.2
2023-07-29T14:33:25.352Z,20.4
2023-07-29T14:35:25.945Z,20.4
2023-07-29T14:38:26.560Z,20.6
2023-07-29T14:40:27.159Z,20.8
2023-07-29T14:43:27.752Z,20.7
2023-07-29T14:45:28.435Z,20.5
2023-07-29T14:48:29.194Z,20.2
2023-07-29T14:50:29.786Z,20.0
2023-07-29T14:53:30.412Z,19.9
2023-07-29T14:56:31.196Z,20.1
2023-07-29T14:58:31.779Z,19.8
2023-07-29T15:01:32.432Z,19.9
2023-07-29T15:03:33.249Z,20.1
2023-07-29T15:06:34.214Z,20.0
2023-07-29T15:11:36.286Z,19.8
2023-07-29T15:13:36.877Z,19.8
2023-07-29T15:16:37.634Z,19.8
2023-07-29T15:18:39.241Z,19.6
2023-07-29T15:21:39.844Z,19.6
2023-07-29T15:23:40.446Z,19.7
2023-07-29T15:26:41.137Z,19.7
2023-07-29T15:28:41.815Z,20.0
2023-07-29T15:31:42.423Z,20.4
2023-07-29T15:33:43.029Z,20.6
2023-07-29T15:36:43.628Z,21.0
2023-07-29T15:38:44.224Z,21.3
2023-07-29T15:41:44.870Z,21.2
2023-07-29T15:44:45.464Z,20.9
2023-07-29T15:46:46.087Z,20.8
2023-07-29T15:51:46.898Z,20.8
2023-07-29T15:54:47.535Z,21.2
2023-07-29T15:56:48.366Z,21.5
2023-07-29T15:59:48.967Z,22.0
2023-07-29T16:01:49.560Z,22.2
2023-07-29T16:04:50.251Z,22.0
2023-07-29T16:06:50.846Z,21.5
2023-07-29T16:09:51.453Z,20.8
2023-07-29T16:11:52.052Z,20.6
2023-07-29T16:14:52.781Z,20.7
2023-07-29T16:16:53.405Z,20.5
2023-07-29T16:19:54.288Z,20.2
2023-07-29T16:22:54.935Z,19.9
2023-07-29T16:24:55.540Z,19.6
2023-07-29T16:27:56.177Z,19.5
2023-07-29T16:32:56.917Z,19.1
2023-07-29T16:34:57.784Z,19.0
2023-07-29T16:37:58.403Z,19.0
2023-07-29T16:39:58.988Z,18.9
2023-07-29T16:42:59.602Z,18.9
2023-07-29T16:45:00.226Z,18.9
2023-07-29T16:48:00.913Z,18.9
2023-07-29T16:50:09.435Z,18.7
2023-07-29T16:53:11.772Z,18.8
2023-07-29T16:55:12.333Z,18.8
2023-07-29T16:58:12.963Z,18.7
2023-07-29T17:00:13.540Z,18.6
2023-07-29T17:03:14.304Z,18.6
2023-07-29T17:05:15.214Z,18.6
2023-07-29T17:08:15.813Z,18.6
2023-07-29T17:13:16.423Z,18.7
2023-07-29T17:16:17.028Z,18.7
2023-07-29T17:18:17.863Z,18.7
2023-07-29T17:21:18.474Z,18.8
2023-07-29T17:23:19.078Z,18.8
2023-07-29T17:26:19.659Z,18.8
2023-07-29T17:28:20.342Z,18.7
2023-07-29T17:31:21.240Z,18.4
2023-07-29T17:33:22.067Z,18.2
2023-07-29T17:36:22.638Z,17.6
2023-07-29T17:38:23.268Z,17.1
2023-07-29T17:41:23.980Z,16.1
2023-07-29T17:43:24.777Z,15.6
2023-07-29T17:46:25.701Z,15.5
2023-07-29T17:48:26.448Z,15.6
2023-07-29T17:53:27.426Z,15.6
2023-07-29T17:56:28.051Z,15.6
2023-07-29T17:58:28.673Z,15.6
2023-07-29T18:01:29.282Z,15.6
2023-07-29T18:04:30.060Z,15.6
2023-07-29T18:06:30.643Z,15.7
2023-07-29T18:09:31.222Z,15.7
2023-07-29T18:11:31.807Z,15.8
2023-07-29T18:14:32.417Z,15.8
2023-07-29T18:16:33.249Z,15.7
2023-07-29T18:19:34.215Z,15.8
2023-07-29T18:21:34.804Z,15.8
2023-07-29T18:24:35.388Z,15.9
2023-07-29T18:26:36.012Z,15.8
2023-07-29T18:29:36.647Z,15.8
2023-07-29T18:34:37.286Z,15.7
2023-07-29T18:37:37.878Z,15.7
2023-07-29T18:39:38.499Z,15.6
2023-07-29T18:42:39.090Z,15.6
2023-07-29T18:44:39.722Z,15.5
2023-07-29T18:47:40.334Z,15.5
2023-07-29T18:49:41.035Z,15.5
2023-07-29T18:52:41.643Z,15.4
2023-07-29T18:54:42.252Z,15.3
2023-07-29T18:57:42.847Z,15.3
2023-07-29T18:59:43.468Z,15.3
2023-07-29T19:02:44.219Z,15.3
2023-07-29T19:04:45.088Z,15.2
2023-07-29T19:07:45.672Z,15.2
2023-07-29T19:10:46.275Z,15.2
2023-07-29T19:14:46.931Z,15.2
2023-07-29T19:17:47.548Z,15.2
2023-07-29T19:20:48.310Z,15.2
2023-07-29T19:22:48.891Z,15.2
2023-07-29T19:25:49.514Z,15.2
2023-07-29T19:27:50.192Z,15.1
2023-07-29T19:30:50.808Z,15.1
2023-07-29T19:32:51.526Z,15.1
2023-07-29T19:35:52.230Z,15.1
2023-07-29T19:37:52.785Z,15.1
2023-07-29T19:40:53.381Z,15.0
2023-07-29T19:42:54.002Z,15.0
2023-07-29T19:46:19.680Z,15.0
2023-07-29T19:48:39.733Z,15.0
2023-07-29T19:50:40.316Z,14.9
2023-07-29T19:55:40.946Z,14.9
2023-07-29T19:58:41.519Z,14.9
2023-07-29T20:00:42.466Z,14.9
2023-07-29T20:03:43.103Z,14.9
2023-07-29T20:05:43.844Z,15.0
2023-07-29T20:08:44.501Z,15.0
2023-07-29T20:10:45.142Z,15.0
2023-07-29T20:13:45.716Z,15.0
2023-07-29T20:15:46.366Z,15.0
2023-07-29T20:18:47.066Z,15.0
2023-07-29T20:20:47.681Z,15.0
2023-07-29T20:23:48.263Z,15.0
2023-07-29T20:26:48.862Z,15.0
2023-07-29T20:28:49.431Z,15.0
2023-07-29T20:31:50.100Z,15.0
2023-07-29T20:36:50.860Z,14.9
2023-07-29T20:38:51.576Z,14.9
2023-07-29T20:41:52.459Z,14.9
2023-07-29T20:43:53.100Z,15.0
2023-07-29T20:46:53.712Z,14.9
2023-07-29T20:48:54.297Z,14.8
2023-07-29T20:51:54.893Z,14.8
2023-07-29T20:53:55.472Z,14.8
2023-07-29T20:56:56.110Z,14.8
2023-07-29T20:59:56.688Z,14.8
2023-07-29T21:01:57.522Z,14.8
2023-07-29T21:04:58.212Z,14.8
2023-07-29T21:06:58.813Z,14.8
2023-07-29T21:09:59.398Z,14.8
2023-07-29T21:12:00.005Z,14.7
2023-07-29T21:17:00.627Z,14.7
2023-07-29T21:20:01.682Z,14.6
2023-07-29T21:22:02.303Z,14.6
2023-07-29T21:25:02.917Z,14.6
2023-07-29T21:27:03.524Z,14.6
2023-07-29T21:30:04.112Z,14.6
2023-07-29T21:32:04.723Z,14.6
2023-07-29T21:35:05.305Z,14.6
2023-07-29T21:37:06.741Z,14.5
2023-07-29T21:40:11.828Z,14.5
2023-07-29T21:42:12.592Z,14.5
2023-07-29T21:45:13.210Z,14.5
2023-07-29T21:48:13.815Z,14.5
2023-07-29T21:50:14.428Z,14.5
2023-07-29T21:53:15.034Z,14.4
2023-07-29T21:58:15.654Z,14.6
2023-07-29T22:00:16.279Z,14.6
2023-07-29T22:05:16.868Z,14.5
2023-07-29T22:08:17.511Z,14.4
2023-07-29T22:10:18.318Z,14.4
2023-07-29T22:13:18.895Z,14.4
2023-07-29T22:15:19.494Z,14.4
2023-07-29T22:18:20.102Z,14.4
2023-07-29T22:20:20.746Z,14.4
2023-07-29T22:23:21.391Z,14.4
2023-07-29T22:25:21.968Z,14.4
2023-07-29T22:28:22.554Z,14.3
2023-07-29T22:31:23.362Z,14.3
2023-07-29T22:33:24.099Z,14.2
2023-07-29T22:38:25.277Z,14.1
2023-07-29T22:41:25.873Z,14.1
2023-07-29T22:43:26.450Z,14.0
2023-07-29T22:46:27.420Z,14.1
2023-07-29T22:48:28.164Z,14.2
2023-07-29T22:51:28.806Z,14.2
2023-07-29T22:53:29.477Z,14.2
2023-07-29T22:56:30.064Z,14.2
2023-07-29T22:58:30.651Z,14.2
2023-07-29T23:01:31.252Z,14.2
2023-07-29T23:03:32.138Z,14.2
2023-07-29T23:06:33.112Z,14.2
2023-07-29T23:09:33.863Z,14.2
2023-07-29T23:11:34.599Z,14.1
2023-07-29T23:14:36.234Z,14.1
2023-07-29T23:19:36.853Z,14.0
2023-07-29T23:21:37.628Z,14.0
2023-07-29T23:24:39.008Z,14.0
2023-07-29T23:26:39.593Z,14.0
2023-07-29T23:29:40.218Z,14.0
2023-07-29T23:31:40.998Z,14.0
2023-07-29T23:34:42.369Z,14.0
2023-07-29T23:36:42.942Z,14.0
2023-07-29T23:39:43.560Z,14.0
2023-07-29T23:41:44.146Z,14.0
2023-07-29T23:44:44.736Z,14.0
2023-07-29T23:47:45.338Z,14.0
2023-07-29T23:49:46.073Z,14.0
2023-07-29T23:52:46.954Z,14.0
2023-07-29T23:54:47.559Z,14.0
2023-07-29T23:59:48.166Z,14.0
